Terminal Aerodrome Forecast
Issued by NWS

Home | Current Version | Previous Version | Text Only | Print | Product List | Glossary On
Versions: 1 2 3 4 5 6 7 8 9 10 11 12 13 14 15
256
FTAK31 PAJN 270540
TAFAWG
TAF
PAWG 270540Z 2706/2806 17008KT P6SM -RA SCT025 OVC060
     FM270900 14010G17KT P6SM -SHRA BKN020 OVC040
     FM271400 13009KT P6SM VCSH SCT025 BKN050
     FM272000 13015G22KT P6SM -SHRA OVC045
     FM280300 13011KT P6SM -SHRA BKN025 OVC050
      AMD NOT SKED=

USA.gov is the U.S. government's official web portal to all federal, state and local government web resources and services.